Time;durP1;ratioP1;P1;durP2;ratioP2;P2;SDS_P1;SDS_P2;PMS_P1;PMS_P2;Temp;Humidity;BMP_temperature;BMP_pressure;BME280_temperature;BME280_humidity;BME280_pressure;Samples;Min_cycle;Max_cycle;Signal;HPM_P1;HPM_P2
2022/02/07 00:02:21;;;;;;;1.92;1.10;;;21.10;56.60;;;;;;4992559;28;20248;-40
2022/02/07 00:04:52;;;;;;;1.48;1.10;;;21.20;56.60;;;;;;4992623;28;20197;-40
2022/02/07 00:07:22;;;;;;;1.30;1.08;;;21.20;56.60;;;;;;4992036;28;20225;-40
2022/02/07 00:09:55;;;;;;;1.80;0.80;;;21.20;56.60;;;;;;4991889;28;20849;-44
2022/02/07 00:12:25;;;;;;;2.45;1.13;;;21.20;56.50;;;;;;4992131;28;20217;-41
2022/02/07 00:14:56;;;;;;;1.95;1.05;;;21.20;56.50;;;;;;4992050;28;20225;-43
2022/02/07 00:17:27;;;;;;;5.20;1.10;;;21.20;56.40;;;;;;4992295;28;20591;-38
2022/02/07 00:19:59;;;;;;;3.08;0.90;;;21.20;55.70;;;;;;4991810;28;20194;-36
2022/02/07 00:22:30;;;;;;;2.63;0.95;;;21.20;54.60;;;;;;4992159;28;20562;-37
2022/02/07 00:25:02;;;;;;;2.53;1.00;;;21.20;54.30;;;;;;4991603;28;20201;-39
2022/02/07 00:27:33;;;;;;;3.67;0.90;;;21.10;53.40;;;;;;4992291;28;20198;-37
2022/02/07 00:30:04;;;;;;;3.25;0.98;;;21.10;53.50;;;;;;4991702;28;20663;-37
2022/02/07 00:32:34;;;;;;;3.15;0.90;;;21.00;53.50;;;;;;4991905;28;20224;-37
2022/02/07 00:35:05;;;;;;;4.38;1.15;;;21.00;53.60;;;;;;4988524;28;20209;-52
2022/02/07 00:37:37;;;;;;;5.00;1.15;;;20.90;53.60;;;;;;4992024;28;20189;-47
2022/02/07 00:42:58;;;;;;;4.20;1.00;;;20.90;54.10;;;;;;4982613;28;20705;-48
2022/02/07 00:45:42;;;;;;;2.53;0.88;;;20.80;54.20;;;;;;4991819;28;20197;-42
2022/02/07 00:48:14;;;;;;;4.45;0.82;;;20.90;54.40;;;;;;4991343;28;20202;-42
2022/02/07 00:50:45;;;;;;;3.53;1.00;;;20.90;54.50;;;;;;4990736;28;20248;-47
2022/02/07 00:53:16;;;;;;;3.03;0.88;;;20.90;54.50;;;;;;4991074;28;20213;-49
2022/02/07 00:55:48;;;;;;;4.65;1.60;;;20.90;54.60;;;;;;4990065;28;20221;-53
2022/02/07 00:58:19;;;;;;;2.42;1.02;;;20.90;54.60;;;;;;4990133;28;20252;-48
2022/02/07 01:00:49;;;;;;;3.35;0.90;;;20.90;54.60;;;;;;4990278;28;20201;-46
2022/02/07 01:03:20;;;;;;;1.67;1.10;;;20.90;54.60;;;;;;4991615;28;20279;-43
2022/02/07 01:05:51;;;;;;;3.78;1.40;;;21.00;54.70;;;;;;4992190;28;20197;-43
2022/02/07 01:08:30;;;;;;;3.90;1.35;;;21.00;54.70;;;;;;4991073;28;20248;-43
2022/02/07 01:11:10;;;;;;;2.78;1.40;;;21.00;54.60;;;;;;4991411;28;20627;-48
2022/02/07 01:14:00;;;;;;;2.38;1.60;;;21.00;54.60;;;;;;4990511;28;20917;-46
2022/02/07 01:22:30;;;;;;;4.68;1.40;;;21.10;54.60;;;;;;4985879;28;20197;-42
2022/02/07 01:47:40;;;;;;;3.45;1.10;;;21.30;54.80;;;;;;4990561;28;20205;-50
2022/02/07 01:53:08;;;;;;;2.22;1.10;;;21.40;54.80;;;;;;4990115;28;20241;-45
2022/02/07 01:55:41;;;;;;;2.67;1.20;;;21.40;54.70;;;;;;4989171;28;20697;-45
2022/02/07 01:58:13;;;;;;;2.42;1.20;;;21.40;54.70;;;;;;4989996;28;20198;-56
2022/02/07 02:00:45;;;;;;;2.78;1.42;;;21.40;54.70;;;;;;4988479;28;20206;-51
2022/02/07 02:03:16;;;;;;;3.20;1.48;;;21.50;54.70;;;;;;4989286;28;20217;-44
2022/02/07 02:05:48;;;;;;;3.85;1.42;;;21.50;54.60;;;;;;4989585;28;20248;-51
2022/02/07 02:08:19;;;;;;;3.42;1.17;;;21.50;54.60;;;;;;4990139;28;20193;-48
2022/02/07 02:10:54;;;;;;;2.58;1.30;;;21.50;54.60;;;;;;4990421;28;20677;-50
2022/02/07 02:13:28;;;;;;;4.75;1.52;;;21.50;54.60;;;;;;4990189;28;20228;-44
2022/02/07 02:16:08;;;;;;;2.47;1.35;;;21.60;54.70;;;;;;4989059;28;20257;-45
2022/02/07 02:32:58;;;;;;;3.33;1.23;;;21.70;54.70;;;;;;4989299;28;20240;-53
2022/02/07 02:35:55;;;;;;;2.55;1.05;;;21.70;54.70;;;;;;4989721;28;20235;-41
2022/02/07 02:38:43;;;;;;;1.65;0.90;;;21.70;54.60;;;;;;4986438;28;20204;-48
2022/02/07 02:47:04;;;;;;;3.20;1.20;;;21.70;54.50;;;;;;4929435;29;20211;-46
2022/02/07 02:49:45;;;;;;;2.03;1.17;;;21.80;54.40;;;;;;4964455;28;20198;-60
2022/02/07 02:52:15;;;;;;;1.88;1.08;;;21.70;54.50;;;;;;4989529;28;20207;-51
2022/02/07 02:54:46;;;;;;;2.40;0.98;;;21.70;54.30;;;;;;4989044;28;20256;-49
2022/02/07 02:57:19;;;;;;;2.35;0.90;;;21.80;54.30;;;;;;4989779;28;20221;-52
2022/02/07 02:59:52;;;;;;;2.08;1.00;;;21.80;54.30;;;;;;4989105;28;20197;-50
2022/02/07 03:02:23;;;;;;;1.92;1.23;;;21.80;54.20;;;;;;4989314;28;20792;-56
2022/02/07 03:04:53;;;;;;;2.33;1.00;;;21.80;54.10;;;;;;4989280;28;20657;-60
2022/02/07 03:07:26;;;;;;;2.55;1.02;;;21.80;54.10;;;;;;4988766;28;20669;-48
2022/02/07 03:09:59;;;;;;;2.03;0.98;;;21.80;54.10;;;;;;4989586;28;20190;-61
2022/02/07 03:12:38;;;;;;;2.30;1.20;;;21.80;54.10;;;;;;4987096;28;20696;-60
2022/02/07 03:16:36;;;;;;;2.72;1.00;;;21.80;54.20;;;;;;4988089;28;20703;-54
2022/02/07 03:18:04;;;;;;;2.42;1.00;;;21.80;54.80;;;;;;4988229;28;20194;-60
2022/02/07 03:20:34;;;;;;;1.75;0.93;;;21.90;54.20;;;;;;4988055;28;20248;-49
2022/02/07 03:23:05;;;;;;;2.45;1.13;;;21.80;54.10;;;;;;4986843;28;20287;-60
2022/02/07 03:25:35;;;;;;;1.58;0.90;;;21.90;54.20;;;;;;4987812;28;20268;-53
2022/02/07 03:28:08;;;;;;;2.28;1.20;;;21.90;54.10;;;;;;4987659;28;20202;-60
2022/02/07 03:30:40;;;;;;;1.63;0.88;;;21.90;54.10;;;;;;4987866;28;20198;-43
2022/02/07 03:33:10;;;;;;;2.28;1.00;;;21.90;54.10;;;;;;4984659;28;20284;-55
2022/02/07 03:35:42;;;;;;;4.63;1.23;;;21.90;54.00;;;;;;4988264;28;20782;-48
2022/02/07 03:38:13;;;;;;;2.28;1.00;;;21.90;54.10;;;;;;4986682;28;20194;-57
2022/02/07 03:40:43;;;;;;;3.17;1.17;;;21.90;54.60;;;;;;4988346;28;20251;-42
2022/02/07 03:43:16;;;;;;;1.95;1.05;;;21.90;54.10;;;;;;4987952;28;20217;-50
2022/02/07 03:45:46;;;;;;;2.53;1.00;;;21.90;54.10;;;;;;4988611;28;20567;-52
2022/02/07 03:48:17;;;;;;;2.30;1.20;;;21.90;54.10;;;;;;4989258;28;20197;-56
2022/02/07 03:50:48;;;;;;;2.10;1.00;;;21.90;54.10;;;;;;4988655;28;20661;-48
2022/02/07 03:53:18;;;;;;;3.40;1.20;;;21.90;54.10;;;;;;4989127;28;20213;-52
2022/02/07 03:55:49;;;;;;;2.88;1.15;;;21.90;54.10;;;;;;4988067;28;20193;-49
2022/02/07 03:58:22;;;;;;;2.97;0.98;;;21.90;54.10;;;;;;4988598;28;20206;-47
2022/02/07 04:00:55;;;;;;;3.65;1.00;;;21.90;54.10;;;;;;4988071;28;20276;-53
2022/02/07 04:03:29;;;;;;;2.20;0.90;;;22.00;54.20;;;;;;4989108;28;20855;-50
2022/02/07 04:06:06;;;;;;;2.13;1.00;;;22.00;54.20;;;;;;4988767;28;20201;-52
2022/02/07 04:08:40;;;;;;;3.00;1.20;;;22.00;54.20;;;;;;4987762;28;20777;-53
2022/02/07 04:11:17;;;;;;;2.97;1.17;;;22.00;54.30;;;;;;4988922;28;20197;-56
2022/02/07 04:13:53;;;;;;;2.72;1.17;;;22.00;54.20;;;;;;4988471;28;20224;-60
2022/02/07 04:16:26;;;;;;;1.83;1.00;;;22.00;54.80;;;;;;4988163;28;20728;-40
2022/02/07 04:19:03;;;;;;;4.25;1.23;;;22.00;54.20;;;;;;4988668;28;20216;-58
2022/02/07 04:21:34;;;;;;;3.60;1.38;;;22.00;54.20;;;;;;4988090;28;20209;-55
2022/02/07 04:24:05;;;;;;;2.53;1.00;;;22.00;54.10;;;;;;4987843;28;20717;-52
2022/02/07 04:26:35;;;;;;;2.85;1.10;;;22.00;54.10;;;;;;4988720;28;20198;-43
2022/02/07 04:29:08;;;;;;;2.15;1.05;;;22.00;54.10;;;;;;4988263;28;20280;-50
2022/02/07 04:31:40;;;;;;;2.03;0.95;;;22.00;54.10;;;;;;4988724;28;20261;-53
2022/02/07 04:34:10;;;;;;;1.85;1.00;;;22.00;54.10;;;;;;4988140;28;20225;-43
2022/02/07 04:36:41;;;;;;;1.55;0.73;;;22.00;54.10;;;;;;4990801;28;20225;-55
2022/02/07 04:39:12;;;;;;;1.80;1.05;;;22.00;54.00;;;;;;4991367;28;20222;-48
2022/02/07 04:41:43;;;;;;;2.92;1.10;;;22.00;54.00;;;;;;4991849;28;20684;-53
2022/02/07 04:44:22;;;;;;;2.42;1.10;;;22.00;54.00;;;;;;4991169;28;20217;-53
2022/02/07 04:47:03;;;;;;;1.50;1.08;;;22.00;54.00;;;;;;4988722;28;20479;-55
2022/02/07 04:50:01;;;;;;;5.10;1.38;;;22.00;54.10;;;;;;4992271;28;20735;-48
2022/02/07 04:52:56;;;;;;;8.02;1.50;;;22.00;54.20;;;;;;4986570;28;20300;-55
2022/02/07 04:55:37;;;;;;;9.32;1.90;;;22.00;54.30;;;;;;4991726;28;20873;-59
2022/02/07 04:58:13;;;;;;;8.80;1.45;;;22.00;54.40;;;;;;4991363;28;20253;-58
2022/02/07 05:00:52;;;;;;;4.20;1.42;;;22.00;54.50;;;;;;4990977;28;20225;-42
2022/02/07 05:03:27;;;;;;;8.07;1.60;;;22.00;54.50;;;;;;4991112;28;20991;-46
2022/02/07 05:14:18;;;;;;;5.57;1.50;;;22.00;53.30;;;;;;4990298;28;20208;-59
2022/02/07 05:16:54;;;;;;;4.25;1.60;;;21.90;53.40;;;;;;4991176;28;20229;-60
2022/02/07 05:19:25;;;;;;;4.72;1.33;;;21.90;53.50;;;;;;4990197;28;20197;-60
2022/02/07 05:21:56;;;;;;;8.30;1.75;;;21.80;53.50;;;;;;4990151;28;20248;-60
2022/02/07 05:24:26;;;;;;;6.88;1.45;;;21.80;53.60;;;;;;4990157;28;20217;-55
2022/02/07 05:26:57;;;;;;;4.45;1.58;;;21.80;53.70;;;;;;4989961;28;20228;-56
2022/02/07 05:29:27;;;;;;;3.90;1.45;;;21.80;53.70;;;;;;4989628;28;20276;-50
2022/02/07 05:32:00;;;;;;;4.63;1.40;;;21.80;53.80;;;;;;4985904;28;20665;-51
2022/02/07 05:34:31;;;;;;;4.70;1.45;;;21.80;53.80;;;;;;4988377;28;20213;-47
2022/02/07 05:37:02;;;;;;;4.70;1.30;;;21.80;53.90;;;;;;4990420;28;20268;-48
2022/02/07 05:39:35;;;;;;;4.30;1.30;;;21.80;53.80;;;;;;4989984;28;20190;-58
2022/02/07 05:42:07;;;;;;;5.20;1.15;;;21.80;54.40;;;;;;4990025;28;20205;-49
2022/02/07 05:44:39;;;;;;;3.88;1.33;;;21.80;53.90;;;;;;4973136;28;20281;-60
2022/02/07 05:47:11;;;;;;;4.05;1.20;;;21.80;53.80;;;;;;4982976;28;20201;-60
2022/02/07 05:49:42;;;;;;;3.10;1.30;;;21.80;53.80;;;;;;4990006;28;20344;-49
2022/02/07 05:52:13;;;;;;;3.83;1.27;;;21.80;53.90;;;;;;4989758;28;20252;-50
2022/02/07 05:54:45;;;;;;;4.70;1.33;;;21.80;54.50;;;;;;4989670;28;20209;-59
2022/02/07 05:57:19;;;;;;;5.50;1.35;;;21.80;53.90;;;;;;4989524;28;20514;-49
2022/02/07 05:59:49;;;;;;;3.47;1.17;;;21.80;54.00;;;;;;4976009;28;20280;-52
2022/02/07 06:02:22;;;;;;;2.75;1.20;;;21.80;54.00;;;;;;4971472;28;20202;-51
2022/02/07 06:04:52;;;;;;;3.90;1.00;;;21.80;54.00;;;;;;4971725;28;20736;-54
2022/02/07 06:07:23;;;;;;;3.08;1.23;;;21.80;54.10;;;;;;4971459;28;20194;-56
2022/02/07 06:09:53;;;;;;;4.72;1.17;;;21.80;54.00;;;;;;4971191;28;20413;-54
2022/02/07 06:12:24;;;;;;;3.90;1.27;;;21.80;54.10;;;;;;4971235;28;20206;-59
2022/02/07 06:14:54;;;;;;;2.28;1.10;;;21.80;54.10;;;;;;4970640;28;20253;-57
2022/02/07 06:17:27;;;;;;;4.68;1.33;;;21.80;54.00;;;;;;4970762;28;20233;-53
2022/02/07 06:19:58;;;;;;;3.75;1.65;;;21.80;54.10;;;;;;4970971;28;20202;-59
2022/02/07 06:22:29;;;;;;;3.03;1.23;;;21.80;54.10;;;;;;4970924;28;20726;-51
2022/02/07 06:25:00;;;;;;;4.10;1.10;;;21.80;54.80;;;;;;4974512;28;20194;-52
2022/02/07 06:27:31;;;;;;;4.43;1.30;;;21.80;54.20;;;;;;4990586;28;20653;-52
2022/02/07 06:30:01;;;;;;;3.15;1.30;;;21.70;54.30;;;;;;4976932;28;20202;-59
2022/02/07 06:32:34;;;;;;;3.78;1.27;;;21.70;54.30;;;;;;4970856;28;20229;-49
2022/02/07 06:35:04;;;;;;;3.85;1.35;;;21.70;54.20;;;;;;4970863;28;20619;-55
2022/02/07 06:37:35;;;;;;;3.58;1.20;;;21.80;54.30;;;;;;4971107;28;20257;-53
2022/02/07 06:40:06;;;;;;;2.25;1.02;;;21.80;54.30;;;;;;4970640;28;20249;-56
2022/02/07 06:42:37;;;;;;;2.75;1.08;;;21.80;54.30;;;;;;4970917;28;20222;-48
2022/02/07 06:45:08;;;;;;;2.70;1.23;;;21.80;54.30;;;;;;4970791;28;20202;-51
2022/02/07 06:47:40;;;;;;;2.00;1.10;;;21.80;54.40;;;;;;4970544;28;20190;-57
2022/02/07 06:50:11;;;;;;;2.88;1.35;;;21.70;54.40;;;;;;4971164;28;20206;-48
2022/02/07 06:52:42;;;;;;;4.30;1.20;;;21.70;54.20;;;;;;4970678;28;20218;-51
2022/02/07 06:55:13;;;;;;;2.05;1.40;;;21.70;54.20;;;;;;4970777;28;20206;-49
2022/02/07 06:57:43;;;;;;;4.60;1.90;;;21.70;54.30;;;;;;4970169;28;20234;-50
2022/02/07 07:00:15;;;;;;;1.85;1.40;;;21.70;54.30;;;;;;4970128;28;20202;-44
2022/02/07 07:02:48;;;;;;;3.70;2.03;;;21.70;54.30;;;;;;4970716;28;20225;-46
2022/02/07 07:05:22;;;;;;;2.33;1.67;;;21.70;54.20;;;;;;4970790;28;20537;-44
2022/02/07 07:07:53;;;;;;;3.25;1.65;;;21.70;54.30;;;;;;4970418;28;20256;-49
2022/02/07 07:10:23;;;;;;;2.03;1.50;;;21.70;54.40;;;;;;4970194;28;20203;-49
2022/02/07 07:13:01;;;;;;;2.45;1.55;;;21.70;54.40;;;;;;4970115;28;20256;-47
2022/02/07 07:15:38;;;;;;;3.95;1.70;;;21.60;54.50;;;;;;4970451;28;20197;-48
2022/02/07 07:18:11;;;;;;;1.58;1.35;;;21.60;54.50;;;;;;4951211;28;20281;-57
2022/02/07 07:20:42;;;;;;;2.15;1.48;;;21.60;54.50;;;;;;4951336;29;20203;-52
2022/02/07 07:23:13;;;;;;;3.40;1.73;;;21.60;54.50;;;;;;4951113;28;20278;-53
2022/02/07 07:25:45;;;;;;;2.60;1.75;;;21.60;54.50;;;;;;4969056;28;20276;-53
2022/02/07 07:28:17;;;;;;;2.50;1.63;;;21.60;54.80;;;;;;4989505;28;20201;-54
2022/02/07 07:30:52;;;;;;;3.13;1.92;;;21.60;54.60;;;;;;4982769;28;20670;-57
2022/02/07 07:33:25;;;;;;;3.92;2.22;;;21.60;54.50;;;;;;4950784;28;20328;-52
2022/02/07 07:35:56;;;;;;;3.05;2.20;;;21.60;54.40;;;;;;4951494;28;20199;-54
2022/02/07 07:38:27;;;;;;;3.58;2.45;;;21.60;54.40;;;;;;4950639;28;20230;-60
2022/02/07 07:40:58;;;;;;;2.88;2.35;;;21.60;54.40;;;;;;4955373;28;21021;-59
2022/02/07 07:43:28;;;;;;;2.30;2.00;;;21.60;54.50;;;;;;4989483;28;20288;-60
2022/02/07 07:46:02;;;;;;;3.42;2.63;;;21.60;54.50;;;;;;4972349;28;20276;-47
2022/02/07 07:48:35;;;;;;;3.55;2.30;;;21.60;54.50;;;;;;4969912;28;20212;-51
2022/02/07 07:51:14;;;;;;;4.10;2.35;;;21.50;54.50;;;;;;4970165;28;20281;-57
2022/02/07 07:54:11;;;;;;;2.50;2.30;;;21.50;54.50;;;;;;4969769;28;20228;-53
2022/02/07 08:02:11;;;;;;;2.45;1.92;;;21.50;54.60;;;;;;4970256;28;20197;-58
2022/02/07 08:04:46;;;;;;;2.22;2.03;;;21.50;54.60;;;;;;4970454;28;20205;-50
2022/02/07 08:07:20;;;;;;;3.28;2.13;;;21.50;54.60;;;;;;4969688;28;20201;-60
2022/02/07 08:12:47;;;;;;;2.85;2.08;;;21.40;54.70;;;;;;4973516;28;20222;-45
2022/02/07 08:15:18;;;;;;;3.42;2.17;;;21.50;54.70;;;;;;4973370;28;20194;-46
2022/02/07 08:17:48;;;;;;;2.72;1.90;;;21.40;54.70;;;;;;4973660;28;20718;-47
2022/02/07 08:20:21;;;;;;;2.50;1.90;;;21.40;54.50;;;;;;4973733;28;20228;-60
2022/02/07 08:22:51;;;;;;;3.78;2.00;;;21.40;54.70;;;;;;4986359;28;20209;-57
2022/02/07 08:25:22;;;;;;;4.15;1.90;;;21.50;54.70;;;;;;4990964;28;20225;-51
2022/02/07 08:27:53;;;;;;;2.03;1.70;;;21.40;54.70;;;;;;4991830;28;20257;-61
2022/02/07 08:30:24;;;;;;;3.30;2.05;;;21.40;54.70;;;;;;4991916;28;20197;-50
2022/02/07 08:32:54;;;;;;;2.45;1.88;;;21.40;54.70;;;;;;4991818;28;20284;-47
2022/02/07 08:35:27;;;;;;;2.47;1.73;;;21.40;54.80;;;;;;4990737;28;20253;-47
2022/02/07 08:37:58;;;;;;;2.17;1.95;;;21.40;54.80;;;;;;4990778;28;20225;-51
2022/02/07 08:40:29;;;;;;;3.88;2.03;;;21.40;54.80;;;;;;4991663;28;20209;-59
2022/02/07 08:43:00;;;;;;;2.75;1.98;;;21.40;54.80;;;;;;4991096;28;20209;-48
2022/02/07 08:45:32;;;;;;;3.80;2.10;;;21.40;54.80;;;;;;4974359;28;20288;-43
2022/02/07 08:48:03;;;;;;;2.97;1.98;;;21.40;54.80;;;;;;4990570;28;20224;-54
2022/02/07 08:50:36;;;;;;;2.90;1.80;;;21.40;54.90;;;;;;4991790;28;20735;-43
2022/02/07 08:53:07;;;;;;;2.47;1.60;;;21.40;54.80;;;;;;4990713;28;20696;-53
2022/02/07 08:55:41;;;;;;;2.40;1.98;;;21.40;54.80;;;;;;4988440;28;20284;-54
2022/02/07 08:58:17;;;;;;;2.20;1.73;;;21.40;54.80;;;;;;4990794;28;20229;-52
2022/02/07 09:00:55;;;;;;;2.05;1.70;;;21.40;54.90;;;;;;4991249;28;20221;-57
2022/02/07 09:03:56;;;;;;;1.92;1.45;;;21.40;54.90;;;;;;4989705;28;20224;-58
2022/02/07 09:06:38;;;;;;;2.65;2.05;;;21.40;54.80;;;;;;4991318;28;20208;-61
2022/02/07 09:09:17;;;;;;;2.10;1.90;;;21.40;54.80;;;;;;4990852;28;20201;-54
2022/02/07 09:11:48;;;;;;;1.85;1.60;;;21.40;54.80;;;;;;4989873;28;20198;-45
2022/02/07 09:14:22;;;;;;;1.80;1.63;;;21.40;54.80;;;;;;4989876;28;20225;-48
2022/02/07 09:16:53;;;;;;;2.58;2.08;;;21.30;54.80;;;;;;4990165;28;20204;-54
2022/02/07 09:19:24;;;;;;;2.25;1.70;;;21.30;54.80;;;;;;4990422;28;20334;-48
2022/02/07 09:21:59;;;;;;;2.58;1.73;;;21.30;54.80;;;;;;4989776;28;20224;-46
2022/02/07 09:24:29;;;;;;;3.80;1.80;;;21.30;54.80;;;;;;4991468;28;20684;-45
2022/02/07 09:27:00;;;;;;;2.30;1.60;;;21.30;54.80;;;;;;4990816;28;20347;-41
2022/02/07 09:29:31;;;;;;;1.85;1.35;;;21.30;54.90;;;;;;4991501;28;20210;-48
2022/02/07 09:32:02;;;;;;;2.05;1.42;;;21.30;54.90;;;;;;4990794;28;20212;-49
2022/02/07 09:34:34;;;;;;;1.80;1.50;;;21.30;54.90;;;;;;4991319;28;20241;-44
2022/02/07 09:37:06;;;;;;;2.50;1.60;;;21.30;54.90;;;;;;4990871;28;20286;-51
2022/02/07 09:39:37;;;;;;;2.70;1.52;;;21.20;54.90;;;;;;4989488;28;20666;-54
2022/02/07 09:42:09;;;;;;;2.55;1.50;;;21.30;54.90;;;;;;4991138;28;20194;-49
2022/02/07 09:44:46;;;;;;;2.85;2.03;;;21.20;54.90;;;;;;4990330;28;20653;-46
2022/02/07 09:47:17;;;;;;;2.53;1.92;;;21.30;54.90;;;;;;4990861;28;20201;-48
2022/02/07 09:49:49;;;;;;;1.55;1.30;;;21.30;54.90;;;;;;4990582;28;20721;-47
2022/02/07 09:52:22;;;;;;;2.20;1.60;;;21.20;54.90;;;;;;4990977;28;20238;-51
2022/02/07 09:54:52;;;;;;;2.28;1.42;;;21.30;54.90;;;;;;4990593;28;20197;-56
2022/02/07 09:57:23;;;;;;;3.03;1.58;;;21.20;54.90;;;;;;4990635;28;20194;-55
2022/02/07 09:59:54;;;;;;;2.75;1.58;;;21.20;54.90;;;;;;4990315;28;20193;-49
2022/02/07 10:02:32;;;;;;;2.67;1.65;;;21.20;54.90;;;;;;4990694;28;20682;-60
2022/02/07 10:05:07;;;;;;;1.63;1.40;;;21.20;54.90;;;;;;4989829;28;20193;-60
2022/02/07 10:07:51;;;;;;;1.95;1.58;;;21.20;54.90;;;;;;4989949;28;20193;-57
2022/02/07 10:10:29;;;;;;;2.22;1.52;;;21.20;54.90;;;;;;4990187;28;20596;-59
2022/02/07 10:13:14;;;;;;;2.20;1.60;;;21.20;54.90;;;;;;4990275;28;20220;-57
2022/02/07 10:15:53;;;;;;;1.90;1.50;;;21.20;54.90;;;;;;4990605;28;20202;-59
2022/02/07 10:18:39;;;;;;;2.80;1.42;;;21.20;54.90;;;;;;4990310;28;20221;-60
2022/02/07 10:21:31;;;;;;;2.10;1.30;;;21.10;54.90;;;;;;4990386;28;20197;-60
2022/02/07 10:38:14;;;;;;;1.45;1.35;;;21.10;54.90;;;;;;4990794;28;20260;-56
2022/02/07 10:41:16;;;;;;;1.30;1.20;;;21.10;54.90;;;;;;4989375;28;20198;-52
2022/02/07 10:44:02;;;;;;;1.33;1.23;;;21.10;54.90;;;;;;4987907;28;20739;-41
2022/02/07 10:46:36;;;;;;;1.65;1.20;;;21.10;54.90;;;;;;4989004;28;20196;-51
2022/02/07 10:49:13;;;;;;;1.92;1.38;;;21.10;54.90;;;;;;4986607;28;20200;-41
2022/02/07 10:51:43;;;;;;;2.00;1.58;;;21.10;55.00;;;;;;4987197;28;20201;-41
2022/02/07 10:54:14;;;;;;;1.50;1.40;;;21.10;54.90;;;;;;4989203;28;20271;-42
2022/02/07 10:56:50;;;;;;;1.48;1.35;;;21.10;55.00;;;;;;4988137;28;20194;-46
2022/02/07 10:59:22;;;;;;;1.67;1.25;;;21.10;55.00;;;;;;4988461;28;20228;-54
2022/02/07 11:04:51;;;;;;;1.58;1.33;;;21.00;55.00;;;;;;4989371;28;20194;-56
2022/02/07 11:07:21;;;;;;;2.65;1.50;;;21.00;55.00;;;;;;4988956;28;20189;-52
2022/02/07 11:10:08;;;;;;;1.60;1.20;;;21.00;55.00;;;;;;4988773;28;20272;-57
2022/02/07 11:13:24;;;;;;;1.25;1.15;;;21.00;55.00;;;;;;4988088;28;20209;-54
2022/02/07 11:16:06;;;;;;;1.52;1.30;;;21.00;55.00;;;;;;4987867;28;20209;-42
2022/02/07 11:19:01;;;;;;;1.48;1.20;;;21.00;55.00;;;;;;4988092;28;20232;-60
2022/02/07 11:21:41;;;;;;;1.58;1.30;;;21.00;55.00;;;;;;4989481;28;20890;-52
2022/02/07 11:24:33;;;;;;;1.73;1.40;;;21.00;55.00;;;;;;4985979;28;20217;-62
2022/02/07 11:27:39;;;;;;;2.22;1.35;;;21.00;55.00;;;;;;4972469;28;20566;-59
2022/02/07 11:30:13;;;;;;;2.40;1.42;;;21.00;55.00;;;;;;4971633;28;20198;-50
2022/02/07 11:32:57;;;;;;;1.40;1.10;;;21.00;55.00;;;;;;4970757;28;20229;-50
2022/02/07 11:35:31;;;;;;;1.30;1.20;;;21.00;55.00;;;;;;4971246;28;20283;-56
2022/02/07 11:38:19;;;;;;;2.30;1.52;;;20.90;55.00;;;;;;4971563;28;20194;-56
2022/02/07 11:41:01;;;;;;;2.20;1.15;;;20.90;55.00;;;;;;4970981;28;20706;-49
2022/02/07 11:43:33;;;;;;;1.33;1.20;;;20.90;55.00;;;;;;4970973;28;20221;-57
2022/02/07 11:46:07;;;;;;;1.50;1.33;;;20.90;55.00;;;;;;4974074;28;20253;-56
2022/02/07 11:48:44;;;;;;;1.20;1.10;;;20.90;55.00;;;;;;4980660;28;20228;-59
2022/02/07 11:51:16;;;;;;;1.48;1.38;;;20.90;55.10;;;;;;4982119;28;20249;-57
2022/02/07 11:53:49;;;;;;;2.05;1.27;;;20.90;55.10;;;;;;4979745;28;20214;-52
2022/02/07 11:56:29;;;;;;;1.65;1.20;;;20.90;55.10;;;;;;4981676;28;20197;-44
2022/02/07 11:59:28;;;;;;;1.30;1.20;;;20.90;55.10;;;;;;4983083;28;20229;-61
2022/02/07 12:02:05;;;;;;;1.88;1.23;;;20.90;55.10;;;;;;4988813;28;20261;-51
2022/02/07 12:04:41;;;;;;;1.40;1.15;;;20.80;55.00;;;;;;4982400;28;20248;-61
2022/02/07 12:07:37;;;;;;;2.60;1.13;;;20.90;55.10;;;;;;4981671;28;20748;-55
2022/02/07 12:10:37;;;;;;;1.35;1.23;;;20.90;55.10;;;;;;4982581;28;20202;-58
2022/02/07 12:13:31;;;;;;;1.10;0.98;;;20.80;55.00;;;;;;4985674;28;20296;-56
2022/02/07 12:16:06;;;;;;;1.48;1.10;;;20.90;55.00;;;;;;4992663;28;20198;-53
2022/02/07 12:18:39;;;;;;;1.50;1.00;;;20.90;55.00;;;;;;4993334;28;20225;-58
2022/02/07 12:21:23;;;;;;;1.60;1.33;;;20.80;55.00;;;;;;4993563;28;20202;-53
2022/02/07 12:23:58;;;;;;;2.65;1.27;;;20.80;55.00;;;;;;4993440;28;20221;-45
2022/02/07 12:26:29;;;;;;;1.48;1.20;;;20.80;55.00;;;;;;4992307;28;20612;-49
2022/02/07 12:29:01;;;;;;;1.90;1.10;;;20.80;55.00;;;;;;4993292;28;20197;-48
2022/02/07 12:31:33;;;;;;;1.65;1.33;;;20.80;55.10;;;;;;4993511;28;20204;-50
2022/02/07 12:34:07;;;;;;;2.65;1.40;;;20.80;55.10;;;;;;4993055;28;20222;-50
2022/02/07 12:36:39;;;;;;;1.65;1.30;;;20.80;55.10;;;;;;4993419;28;20196;-46
2022/02/07 12:39:13;;;;;;;1.67;1.30;;;20.80;55.10;;;;;;4992820;28;20225;-60
2022/02/07 12:41:44;;;;;;;1.42;0.95;;;20.80;55.10;;;;;;4975732;28;20290;-49
2022/02/07 12:44:22;;;;;;;1.48;1.05;;;20.80;55.10;;;;;;4973708;28;20280;-49
2022/02/07 12:46:54;;;;;;;1.35;1.25;;;20.70;55.10;;;;;;4973703;28;20202;-54
2022/02/07 12:49:28;;;;;;;1.23;1.13;;;20.70;55.10;;;;;;4973789;28;20198;-57
2022/02/07 12:51:59;;;;;;;1.17;1.08;;;20.70;55.00;;;;;;4973568;28;20198;-58
2022/02/07 12:54:29;;;;;;;1.35;1.17;;;20.70;55.00;;;;;;4973064;28;20224;-54
2022/02/07 12:57:03;;;;;;;1.30;0.98;;;20.70;55.00;;;;;;4972377;28;20269;-56
2022/02/07 12:59:34;;;;;;;1.63;1.02;;;20.70;55.00;;;;;;4973482;28;20230;-60
2022/02/07 13:02:05;;;;;;;1.27;1.17;;;20.70;55.10;;;;;;4973721;28;20245;-59
2022/02/07 13:04:38;;;;;;;2.05;1.25;;;20.70;55.00;;;;;;4973518;28;20202;-58
2022/02/07 13:07:14;;;;;;;1.45;1.27;;;20.70;55.00;;;;;;4973339;28;20260;-51
2022/02/07 13:09:51;;;;;;;1.52;1.17;;;20.70;55.00;;;;;;4973243;28;20213;-61
2022/02/07 13:12:36;;;;;;;1.35;1.25;;;20.70;55.10;;;;;;4954132;28;20202;-53
2022/02/07 13:15:17;;;;;;;1.33;1.20;;;20.70;55.10;;;;;;4973181;28;20669;-55
2022/02/07 13:17:52;;;;;;;1.45;1.13;;;20.70;55.10;;;;;;4992971;28;20198;-60
2022/02/07 13:20:26;;;;;;;1.38;1.20;;;20.70;55.10;;;;;;4992277;28;20220;-59
2022/02/07 13:23:06;;;;;;;1.27;1.17;;;20.70;55.10;;;;;;4982820;28;20257;-43
2022/02/07 13:25:44;;;;;;;1.15;1.02;;;20.60;55.10;;;;;;4974629;28;20253;-56
2022/02/07 13:28:16;;;;;;;1.50;1.10;;;20.60;55.10;;;;;;4972798;28;20629;-48
2022/02/07 13:30:49;;;;;;;2.67;1.35;;;20.60;55.10;;;;;;4972984;28;20720;-51
2022/02/07 13:33:19;;;;;;;1.40;1.10;;;20.60;55.10;;;;;;4972906;28;20229;-53
2022/02/07 13:35:55;;;;;;;2.05;1.10;;;20.60;55.10;;;;;;4973381;28;20765;-57
2022/02/07 13:38:27;;;;;;;1.77;1.48;;;20.60;55.10;;;;;;4973175;28;20202;-51
2022/02/07 13:41:03;;;;;;;1.00;0.90;;;20.60;55.10;;;;;;4973031;28;20198;-58
2022/02/07 13:43:35;;;;;;;1.52;1.10;;;20.60;55.10;;;;;;4972878;28;20250;-49
2022/02/07 13:46:08;;;;;;;1.13;1.02;;;20.60;55.10;;;;;;4972415;28;20592;-51
2022/02/07 13:48:41;;;;;;;1.85;1.30;;;20.60;55.10;;;;;;4970219;28;20538;-57
2022/02/07 13:51:14;;;;;;;1.27;1.17;;;20.60;55.10;;;;;;4972917;28;20194;-52
2022/02/07 13:53:46;;;;;;;1.27;1.00;;;20.60;55.10;;;;;;4972544;28;20370;-46
2022/02/07 13:56:17;;;;;;;1.17;1.08;;;20.60;55.20;;;;;;4972039;28;20203;-52
2022/02/07 13:58:47;;;;;;;1.77;1.20;;;20.60;55.10;;;;;;4972543;28;20258;-53
2022/02/07 14:01:23;;;;;;;1.55;0.90;;;20.60;55.10;;;;;;4972575;28;20202;-52
2022/02/07 14:03:58;;;;;;;1.10;1.00;;;20.50;55.10;;;;;;4972607;28;20304;-54
2022/02/07 14:06:32;;;;;;;1.30;1.20;;;20.50;55.10;;;;;;4972275;28;20607;-61
2022/02/07 14:09:12;;;;;;;1.20;1.00;;;20.50;55.20;;;;;;4971831;28;20760;-53
2022/02/07 14:11:43;;;;;;;1.83;1.20;;;20.50;55.20;;;;;;4971502;28;20756;-48
2022/02/07 14:14:13;;;;;;;1.58;1.30;;;20.50;55.20;;;;;;4974570;28;20222;-60
2022/02/07 14:16:44;;;;;;;1.55;1.20;;;20.50;55.20;;;;;;4991520;28;20264;-56
2022/02/07 14:19:16;;;;;;;1.20;1.10;;;20.50;55.20;;;;;;4991066;28;20744;-54
2022/02/07 14:21:48;;;;;;;1.30;1.00;;;20.40;55.10;;;;;;4991478;28;20206;-50
2022/02/07 14:24:20;;;;;;;1.58;1.05;;;20.40;55.20;;;;;;4991347;28;20268;-52
2022/02/07 14:26:51;;;;;;;1.20;0.90;;;20.50;55.20;;;;;;4978021;28;20199;-59
2022/02/07 14:29:22;;;;;;;1.50;1.02;;;20.40;55.10;;;;;;4971796;28;20252;-44
2022/02/07 14:31:52;;;;;;;0.95;0.90;;;20.50;55.20;;;;;;4971957;28;20644;-49
2022/02/07 14:34:23;;;;;;;1.35;1.10;;;20.40;55.10;;;;;;4971967;28;20214;-48
2022/02/07 14:36:55;;;;;;;2.42;1.20;;;20.50;55.10;;;;;;4971953;28;20245;-53
2022/02/07 14:39:26;;;;;;;1.50;1.17;;;20.40;55.10;;;;;;4972222;28;20221;-63
2022/02/07 14:42:00;;;;;;;2.67;1.20;;;20.40;55.10;;;;;;4971516;28;20249;-53
2022/02/07 14:44:32;;;;;;;1.90;1.30;;;20.40;55.10;;;;;;4971512;28;20225;-55
2022/02/07 14:47:13;;;;;;;1.25;1.10;;;20.40;55.20;;;;;;4971470;28;20193;-52
2022/02/07 14:49:43;;;;;;;1.60;1.08;;;20.40;55.20;;;;;;4971736;28;20224;-48
2022/02/07 14:52:16;;;;;;;1.67;1.02;;;20.30;55.20;;;;;;4971604;28;20195;-58
2022/02/07 14:54:46;;;;;;;1.15;0.90;;;20.30;55.20;;;;;;4971268;28;20724;-47